KISN/ISN METAR and TAF weather

Enter ICAO airport designator
Station Type Date Time Source
KISN METAR 2019/09/20 20:27 UTC NOAA

KISN 202027Z AUTO 34014G20KT 10SM BKN026 OVC110 21/16 A2975 RMK AO2 T02110161


Station Type Date Time Source
KISN Decoded METAR 2019/09/20 20:27 UTC NOAA

SLOULIN FIELD INTERNATIONAL AIRPORT, ND, United States (KISN) 48-11N 103-39W 579M
Sep 20, 2019 - 04:27 PM EDT / 2019.09.20 2027 UTC
Wind: from the NNW (340 degrees) at 16 MPH (14 KT) gusting to 23 MPH (20 KT):0
Visibility: 10 mile(s):0
Sky conditions: overcast
Temperature: 70.0 F (21.1 C)
Dew Point: 61.0 F (16.1 C)
Relative Humidity: 73%
Pressure (altimeter): 29.75 in. Hg (1007 hPa)
ob: KISN 202027Z AUTO 34014G20KT 10SM BKN026 OVC110 21/16 A2975 RMK AO2 T02110161
cycle: 20

Station Type Date Time Source
KISN TAF 2019/09/20 20:15 UTC NOAA

TAF
AMD KISN 202012Z 2020/2118 36011KT P6SM FEW110 BKN200
FM210200 34012KT P6SM VCSH OVC080
FM210900 35010KT 6SM -SHRA BR SCT030 OVC045
FM211200 34011KT 4SM SHRA BR OVC026
FM211500 32014G22KT P6SM -SHRA OVC019

Example: see airport list